Time;durP1;ratioP1;P1;durP2;ratioP2;P2;SDS_P1;SDS_P2;PMS_P1;PMS_P2;Temp;Humidity;BMP_temperature;BMP_pressure;BME280_temperature;BME280_humidity;BME280_pressure;Samples;Min_cycle;Max_cycle;Signal;HPM_P1;HPM_P2
2021/06/04 00:01:17;;;;;;;10.63;6.43;;;21.50;49.60;;;;;;5051325;28;20475;-44
2021/06/04 00:03:44;;;;;;;11.82;6.53;;;21.50;49.70;;;;;;5051649;28;20021;-45
2021/06/04 00:06:10;;;;;;;10.98;6.07;;;21.40;49.70;;;;;;5033531;28;20119;-44
2021/06/04 00:08:37;;;;;;;16.10;7.13;;;21.30;50.20;;;;;;5052058;28;20025;-44
2021/06/04 00:11:20;;;;;;;10.30;6.72;;;21.30;50.60;;;;;;5050639;28;20025;-45
2021/06/04 00:13:49;;;;;;;15.05;6.75;;;21.20;50.80;;;;;;5051640;28;20454;-44
2021/06/04 00:16:15;;;;;;;13.18;6.93;;;21.10;51.10;;;;;;5050653;28;20532;-44
2021/06/04 00:18:41;;;;;;;11.52;6.88;;;21.10;51.10;;;;;;5051008;28;20029;-45
2021/06/04 00:21:15;;;;;;;11.77;6.97;;;21.00;51.20;;;;;;5033020;28;20033;-46
2021/06/04 00:23:42;;;;;;;10.77;6.30;;;21.00;52.00;;;;;;5051400;28;20036;-46
2021/06/04 00:26:08;;;;;;;16.13;6.65;;;21.00;51.50;;;;;;5050460;28;20040;-45
2021/06/04 00:28:34;;;;;;;10.40;5.97;;;21.00;51.70;;;;;;5050940;28;20044;-45
2021/06/04 00:31:01;;;;;;;13.40;6.22;;;20.90;51.60;;;;;;5051233;28;20055;-46
2021/06/04 00:33:26;;;;;;;12.52;6.75;;;21.00;51.60;;;;;;5051035;28;20025;-46
2021/06/04 00:35:52;;;;;;;15.45;6.25;;;21.00;51.50;;;;;;5051053;28;20117;-44
2021/06/04 00:38:18;;;;;;;11.00;5.95;;;21.00;51.50;;;;;;5050696;28;20484;-47
2021/06/04 00:40:49;;;;;;;9.88;6.47;;;21.00;51.60;;;;;;5050836;28;20056;-44
2021/06/04 00:43:16;;;;;;;9.60;6.55;;;21.00;51.70;;;;;;5049913;28;20029;-47
2021/06/04 00:45:48;;;;;;;12.23;5.95;;;21.00;51.70;;;;;;5049038;28;20053;-46
2021/06/04 00:48:33;;;;;;;12.82;6.25;;;20.90;51.90;;;;;;5050394;28;20056;-46
2021/06/04 00:51:24;;;;;;;12.05;6.22;;;20.90;51.90;;;;;;5050904;28;20471;-47
2021/06/04 00:53:53;;;;;;;9.98;5.78;;;20.90;52.00;;;;;;5033261;28;20025;-48
2021/06/04 00:56:23;;;;;;;15.32;6.15;;;20.80;52.00;;;;;;5032439;28;20028;-45
2021/06/04 00:58:49;;;;;;;13.57;6.18;;;20.80;51.80;;;;;;5050975;28;20025;-48
2021/06/04 01:01:21;;;;;;;13.60;6.07;;;20.90;51.50;;;;;;5033371;28;20033;-46
2021/06/04 01:03:56;;;;;;;14.57;6.43;;;20.90;51.50;;;;;;5036682;28;20112;-46
2021/06/04 01:06:39;;;;;;;24.73;7.10;;;20.80;51.40;;;;;;5053947;28;20307;-43
2021/06/04 01:09:14;;;;;;;12.05;6.00;;;20.80;51.60;;;;;;5054443;28;20021;-47
2021/06/04 01:12:10;;;;;;;11.07;6.13;;;20.70;52.00;;;;;;5054590;28;20024;-48
2021/06/04 01:14:50;;;;;;;13.57;6.25;;;20.70;52.10;;;;;;5054683;28;20049;-51
2021/06/04 01:17:32;;;;;;;13.98;6.75;;;20.70;52.10;;;;;;5054520;28;20029;-43
2021/06/04 01:20:10;;;;;;;11.07;6.20;;;20.70;52.10;;;;;;5055032;28;20028;-44
2021/06/04 01:22:41;;;;;;;14.10;5.93;;;20.60;52.60;;;;;;5054960;28;20036;-47
2021/06/04 01:25:32;;;;;;;11.23;6.60;;;20.50;52.50;;;;;;5054017;28;20028;-45
2021/06/04 01:28:03;;;;;;;13.98;6.65;;;20.60;52.50;;;;;;5054325;28;20561;-45
2021/06/04 01:30:31;;;;;;;13.25;6.60;;;20.60;52.40;;;;;;5054412;28;20060;-45
2021/06/04 01:33:04;;;;;;;15.15;6.80;;;20.50;52.70;;;;;;5054696;28;20027;-48
2021/06/04 01:35:36;;;;;;;13.43;7.25;;;20.50;52.90;;;;;;5037096;28;20024;-45
2021/06/04 01:38:04;;;;;;;14.93;6.40;;;20.40;52.90;;;;;;5054411;28;20033;-43
2021/06/04 01:40:47;;;;;;;14.45;6.38;;;20.50;53.00;;;;;;5036472;28;20464;-49
2021/06/04 01:43:19;;;;;;;10.95;6.28;;;20.40;53.20;;;;;;5054126;28;20020;-45
2021/06/04 01:45:51;;;;;;;12.30;6.45;;;20.30;53.40;;;;;;5054276;28;20025;-44
2021/06/04 01:48:22;;;;;;;11.18;6.13;;;20.30;53.50;;;;;;5053848;28;20045;-45
2021/06/04 01:51:14;;;;;;;13.63;6.93;;;20.30;53.50;;;;;;5053981;28;20020;-47
2021/06/04 01:53:47;;;;;;;10.15;6.32;;;20.30;53.60;;;;;;5054131;28;20048;-51
2021/06/04 01:56:26;;;;;;;13.25;6.30;;;20.30;53.40;;;;;;5035889;28;20036;-52
2021/06/04 01:58:58;;;;;;;9.23;6.05;;;20.30;53.50;;;;;;5054169;28;20044;-44
2021/06/04 02:01:32;;;;;;;11.27;6.22;;;20.30;53.60;;;;;;5053642;28;20043;-44
2021/06/04 02:03:58;;;;;;;13.55;6.55;;;20.20;53.80;;;;;;5035712;28;20029;-45
2021/06/04 02:06:26;;;;;;;10.95;6.38;;;20.20;53.90;;;;;;5053611;28;20036;-44
2021/06/04 02:08:58;;;;;;;13.27;6.43;;;20.10;54.00;;;;;;5053821;28;20103;-44
2021/06/04 02:11:29;;;;;;;10.40;6.78;;;20.10;54.10;;;;;;5053163;28;20035;-45
2021/06/04 02:13:56;;;;;;;13.25;6.68;;;20.00;54.30;;;;;;5034843;28;20059;-45
2021/06/04 02:16:55;;;;;;;13.35;6.43;;;20.10;54.40;;;;;;5052689;28;20059;-48
2021/06/04 02:19:39;;;;;;;12.55;7.03;;;20.00;54.70;;;;;;5035250;28;20083;-44
2021/06/04 02:22:07;;;;;;;9.82;7.07;;;19.90;55.10;;;;;;5053759;28;20029;-46
2021/06/04 02:25:05;;;;;;;12.48;7.15;;;19.80;55.20;;;;;;5035697;28;20082;-44
2021/06/04 02:27:41;;;;;;;10.68;6.57;;;19.80;55.70;;;;;;5053263;28;20037;-43
2021/06/04 02:30:23;;;;;;;12.52;6.95;;;19.70;55.70;;;;;;5035813;28;20482;-47
2021/06/04 02:33:02;;;;;;;15.65;6.43;;;19.60;55.70;;;;;;5053365;28;20096;-46
2021/06/04 02:35:42;;;;;;;13.45;7.00;;;19.60;55.70;;;;;;5035176;28;20547;-45
2021/06/04 02:38:23;;;;;;;12.55;6.47;;;19.60;56.00;;;;;;5053013;28;20024;-50
2021/06/04 02:41:02;;;;;;;10.23;7.28;;;19.60;56.00;;;;;;5053447;28;20375;-47
2021/06/04 02:43:41;;;;;;;8.18;6.70;;;19.60;56.00;;;;;;5052669;28;20563;-44
2021/06/04 02:46:19;;;;;;;18.75;7.82;;;19.50;56.10;;;;;;5053277;28;20025;-43
2021/06/04 02:48:47;;;;;;;16.88;7.00;;;19.50;56.30;;;;;;5053327;28;20021;-43
2021/06/04 02:51:30;;;;;;;13.57;7.20;;;19.50;56.40;;;;;;5052184;28;20029;-45
2021/06/04 02:54:01;;;;;;;12.10;6.57;;;19.50;56.50;;;;;;5053367;28;20021;-46
2021/06/04 02:56:32;;;;;;;12.32;6.63;;;19.40;56.60;;;;;;5052304;28;20116;-43
2021/06/04 02:59:07;;;;;;;16.55;7.25;;;19.40;56.90;;;;;;5052748;28;20495;-44
2021/06/04 03:01:37;;;;;;;13.05;7.43;;;19.40;56.90;;;;;;5052177;28;20020;-45
2021/06/04 03:04:04;;;;;;;13.18;7.47;;;19.40;56.90;;;;;;5034833;28;20120;-44
2021/06/04 03:06:34;;;;;;;14.98;7.75;;;19.40;56.90;;;;;;5052309;28;20088;-45
2021/06/04 03:09:01;;;;;;;15.55;7.78;;;19.40;56.90;;;;;;5052743;28;20436;-43
2021/06/04 03:11:32;;;;;;;10.18;7.43;;;19.40;56.80;;;;;;5052210;28;20028;-46
2021/06/04 03:14:02;;;;;;;10.65;7.07;;;19.40;56.90;;;;;;5034509;28;20090;-45
2021/06/04 03:16:28;;;;;;;14.60;7.90;;;19.40;57.10;;;;;;5052019;28;20039;-44
2021/06/04 03:19:00;;;;;;;11.82;7.75;;;19.40;57.10;;;;;;5052292;28;20021;-46
2021/06/04 03:21:35;;;;;;;9.60;7.22;;;19.40;57.10;;;;;;5052230;28;20025;-45
2021/06/04 03:24:04;;;;;;;10.15;7.13;;;19.40;57.10;;;;;;5033934;28;20028;-46
2021/06/04 03:26:31;;;;;;;15.30;7.97;;;19.40;57.30;;;;;;5052007;28;20033;-46
2021/06/04 03:29:00;;;;;;;12.65;7.78;;;19.30;57.50;;;;;;5034301;28;20036;-46
2021/06/04 03:31:29;;;;;;;12.63;7.85;;;19.30;57.50;;;;;;5051807;28;20032;-44
2021/06/04 03:33:56;;;;;;;14.85;7.65;;;19.30;57.40;;;;;;5052589;28;20037;-46
2021/06/04 03:36:28;;;;;;;12.10;7.85;;;19.30;57.30;;;;;;5051958;28;20040;-47
2021/06/04 03:38:54;;;;;;;12.40;7.40;;;19.40;57.30;;;;;;5034239;28;20083;-46
2021/06/04 03:41:24;;;;;;;11.75;7.63;;;19.40;57.20;;;;;;5051899;28;20029;-45
2021/06/04 03:43:51;;;;;;;10.63;7.20;;;19.50;57.80;;;;;;5052476;28;20048;-44
2021/06/04 03:46:17;;;;;;;37.00;8.07;;;19.50;57.60;;;;;;5033793;28;20037;-44
2021/06/04 03:48:43;;;;;;;11.98;7.60;;;19.50;56.90;;;;;;5052391;28;20021;-45
2021/06/04 03:51:14;;;;;;;13.50;7.28;;;19.50;57.00;;;;;;5034094;28;20024;-46
2021/06/04 03:53:40;;;;;;;10.82;7.45;;;19.50;57.00;;;;;;5051967;28;20479;-49
2021/06/04 03:56:08;;;;;;;12.05;7.97;;;19.50;57.20;;;;;;5052096;28;20100;-47
2021/06/04 03:58:34;;;;;;;16.83;8.27;;;19.50;56.90;;;;;;5051576;28;20246;-48
2021/06/04 04:01:06;;;;;;;14.73;8.52;;;19.50;57.70;;;;;;5034317;28;20387;-45
2021/06/04 04:03:31;;;;;;;21.00;8.48;;;19.40;57.20;;;;;;5051429;28;20021;-46
2021/06/04 04:05:57;;;;;;;16.83;8.82;;;19.50;57.20;;;;;;5051700;28;20032;-51
2021/06/04 04:08:25;;;;;;;12.27;8.15;;;19.50;57.10;;;;;;5033630;28;20075;-45
2021/06/04 04:10:52;;;;;;;16.27;8.05;;;19.50;57.10;;;;;;5033855;28;20021;-47
2021/06/04 04:13:20;;;;;;;11.30;8.18;;;19.60;57.20;;;;;;5051320;28;20060;-49
2021/06/04 04:15:46;;;;;;;15.88;8.65;;;19.60;56.90;;;;;;5051310;28;20135;-44
2021/06/04 04:18:12;;;;;;;14.70;9.23;;;19.70;56.80;;;;;;5051901;28;20065;-44
2021/06/04 04:20:44;;;;;;;11.82;8.88;;;19.60;56.70;;;;;;5033468;28;20083;-44
2021/06/04 04:23:12;;;;;;;12.18;8.68;;;19.70;56.70;;;;;;5051870;28;20025;-44
2021/06/04 04:25:41;;;;;;;11.85;8.35;;;19.70;56.60;;;;;;5051072;28;20029;-45
2021/06/04 04:28:09;;;;;;;13.20;8.40;;;19.70;56.70;;;;;;5033805;28;20079;-46
2021/06/04 04:30:34;;;;;;;15.45;8.77;;;19.70;56.50;;;;;;5033444;28;20079;-45
2021/06/04 04:33:01;;;;;;;17.80;9.23;;;19.80;56.50;;;;;;5051470;28;20344;-47
2021/06/04 04:35:30;;;;;;;16.45;8.35;;;19.80;56.30;;;;;;5050758;28;20060;-46
2021/06/04 04:37:56;;;;;;;20.63;9.55;;;19.80;56.10;;;;;;5055532;28;20025;-44
2021/06/04 04:40:25;;;;;;;18.02;8.50;;;19.80;56.10;;;;;;5055133;28;20096;-44
2021/06/04 04:42:51;;;;;;;37.35;8.98;;;19.80;56.10;;;;;;5055541;28;20033;-45
2021/06/04 04:45:19;;;;;;;21.48;9.27;;;19.90;55.90;;;;;;5037249;28;20104;-49
2021/06/04 04:47:45;;;;;;;46.15;10.68;;;20.00;55.70;;;;;;5055206;28;20035;-44
2021/06/04 04:50:12;;;;;;;28.90;10.18;;;20.00;55.60;;;;;;5037631;28;20112;-44
2021/06/04 04:52:38;;;;;;;21.77;8.48;;;20.10;55.30;;;;;;5055013;28;20112;-46
2021/06/04 04:55:06;;;;;;;21.23;9.30;;;20.20;55.00;;;;;;5037611;28;20029;-47
2021/06/04 04:57:32;;;;;;;15.18;8.30;;;20.20;54.90;;;;;;5054882;28;20036;-46
2021/06/04 04:59:58;;;;;;;13.95;7.38;;;20.20;54.50;;;;;;5055305;28;20025;-43
2021/06/04 05:02:25;;;;;;;21.85;8.13;;;20.30;54.20;;;;;;5036802;28;20028;-47
2021/06/04 05:04:51;;;;;;;63.50;11.27;;;20.40;54.80;;;;;;5037439;28;20036;-42
2021/06/04 05:07:17;;;;;;;91.00;11.75;;;20.40;53.90;;;;;;5054846;28;20060;-43
2021/06/04 05:09:43;;;;;;;26.92;8.50;;;20.50;53.90;;;;;;5036514;28;20112;-45
2021/06/04 05:12:10;;;;;;;28.15;9.10;;;20.40;54.00;;;;;;5037141;28;20074;-43
2021/06/04 05:14:36;;;;;;;15.07;8.23;;;20.40;54.00;;;;;;5036291;28;20136;-45
2021/06/04 05:17:03;;;;;;;14.82;8.05;;;20.40;53.90;;;;;;5054737;28;20067;-47
2021/06/04 05:19:29;;;;;;;14.85;8.35;;;20.30;54.20;;;;;;5054280;28;20029;-48
2021/06/04 05:21:56;;;;;;;140.40;16.33;;;20.30;54.30;;;;;;5036943;28;20044;-45
2021/06/04 05:24:23;;;;;;;24.25;8.98;;;20.40;54.30;;;;;;5036441;28;20036;-44
2021/06/04 05:26:49;;;;;;;40.65;10.13;;;20.50;54.10;;;;;;5036927;28;20048;-46
2021/06/04 05:29:15;;;;;;;34.25;10.27;;;20.70;54.00;;;;;;5054217;28;20472;-44
2021/06/04 05:31:41;;;;;;;14.73;8.52;;;20.70;54.00;;;;;;5053738;28;20031;-44
2021/06/04 05:34:09;;;;;;;15.65;9.38;;;20.70;53.90;;;;;;5054456;28;20078;-46
2021/06/04 05:36:36;;;;;;;15.98;8.60;;;20.80;53.80;;;;;;5054053;28;20037;-44
2021/06/04 05:39:24;;;;;;;14.25;9.18;;;20.70;53.80;;;;;;5054816;28;20040;-46
2021/06/04 05:41:54;;;;;;;14.82;9.23;;;20.90;53.60;;;;;;5053948;28;20039;-46
2021/06/04 05:44:23;;;;;;;20.60;8.27;;;20.90;53.50;;;;;;5036220;28;20033;-45
2021/06/04 05:46:52;;;;;;;15.63;8.80;;;21.00;53.50;;;;;;5052990;28;20069;-45
2021/06/04 05:49:19;;;;;;;16.20;8.85;;;21.00;53.50;;;;;;5053997;28;20021;-47
2021/06/04 05:51:46;;;;;;;18.67;8.95;;;21.10;53.30;;;;;;5053402;28;20482;-47
2021/06/04 05:54:12;;;;;;;15.20;9.13;;;21.10;53.10;;;;;;5036301;28;20024;-47
2021/06/04 05:56:38;;;;;;;14.60;8.90;;;21.30;53.00;;;;;;5053250;28;20487;-45
2021/06/04 05:59:04;;;;;;;15.98;8.75;;;21.40;52.70;;;;;;5053714;28;20029;-44
2021/06/04 06:01:34;;;;;;;22.13;9.10;;;21.40;52.60;;;;;;5035620;28;20029;-46
2021/06/04 06:04:00;;;;;;;22.65;8.57;;;21.50;52.60;;;;;;5053596;28;20039;-45
2021/06/04 06:06:26;;;;;;;17.98;8.20;;;21.70;52.30;;;;;;5035256;28;20039;-45
2021/06/04 06:08:52;;;;;;;19.30;8.63;;;21.70;51.90;;;;;;5053531;28;20048;-47
2021/06/04 06:11:22;;;;;;;15.70;8.25;;;21.70;51.70;;;;;;5052548;28;20021;-43
2021/06/04 06:13:49;;;;;;;16.27;8.75;;;21.90;51.50;;;;;;5054031;28;20037;-45
2021/06/04 06:16:15;;;;;;;16.92;8.25;;;22.10;51.30;;;;;;5053489;28;20021;-45
2021/06/04 06:18:41;;;;;;;22.52;8.90;;;22.30;50.80;;;;;;5052952;28;20037;-48
2021/06/04 06:21:07;;;;;;;23.38;9.30;;;22.30;50.60;;;;;;5053580;28;20060;-47
2021/06/04 06:23:35;;;;;;;17.98;8.57;;;22.40;50.60;;;;;;5053046;28;20032;-45
2021/06/04 06:26:09;;;;;;;15.32;8.10;;;22.50;50.20;;;;;;5053254;28;20052;-44
2021/06/04 06:28:39;;;;;;;16.25;8.10;;;22.40;50.00;;;;;;5035083;28;20156;-44
2021/06/04 06:31:14;;;;;;;21.23;9.27;;;22.50;49.90;;;;;;5035256;28;20025;-45
2021/06/04 06:33:40;;;;;;;18.75;9.48;;;22.60;50.10;;;;;;5035020;28;20120;-44
2021/06/04 06:36:13;;;;;;;21.30;9.93;;;22.70;49.70;;;;;;5018944;28;20456;-46
2021/06/04 06:38:58;;;;;;;16.35;9.20;;;22.90;49.50;;;;;;5052800;28;20100;-47
2021/06/04 06:41:26;;;;;;;15.77;10.43;;;23.00;49.40;;;;;;5034913;28;20025;-46
2021/06/04 06:43:52;;;;;;;19.25;10.43;;;23.30;49.10;;;;;;5052626;28;20025;-43
2021/06/04 06:46:20;;;;;;;15.88;9.18;;;23.50;48.60;;;;;;5052644;28;20559;-46
2021/06/04 06:48:47;;;;;;;14.98;10.00;;;23.70;48.40;;;;;;5052309;28;20095;-44
2021/06/04 06:51:14;;;;;;;25.60;10.32;;;25.10;47.00;;;;;;5052776;28;20107;-45
2021/06/04 06:53:41;;;;;;;15.40;8.73;;;28.80;42.30;;;;;;5034474;28;20413;-49
2021/06/04 06:56:09;;;;;;;16.23;8.60;;;32.70;35.70;;;;;;5051663;28;20021;-48
2021/06/04 06:58:36;;;;;;;36.90;9.43;;;35.80;31.50;;;;;;5033576;28;20021;-48
2021/06/04 07:01:04;;;;;;;45.25;9.50;;;38.30;28.70;;;;;;5052414;28;20059;-47
2021/06/04 07:03:33;;;;;;;35.80;8.75;;;39.70;27.20;;;;;;5052087;28;20052;-48
2021/06/04 07:06:01;;;;;;;18.73;7.80;;;40.30;26.40;;;;;;5051946;28;20033;-50
2021/06/04 07:08:46;;;;;;;16.80;7.47;;;41.30;25.60;;;;;;5052088;28;20079;-47
2021/06/04 07:11:13;;;;;;;11.55;6.80;;;42.30;25.00;;;;;;5052230;28;20029;-50
2021/06/04 07:13:39;;;;;;;27.48;7.90;;;43.80;24.00;;;;;;5033274;28;20033;-47
2021/06/04 07:16:09;;;;;;;42.38;9.15;;;44.70;23.40;;;;;;5033235;28;20507;-51
2021/06/04 07:18:35;;;;;;;15.85;7.15;;;45.20;23.10;;;;;;5051184;28;20025;-49
2021/06/04 07:21:02;;;;;;;19.27;7.28;;;45.70;23.00;;;;;;5051646;28;20186;-49
2021/06/04 07:23:30;;;;;;;17.05;6.82;;;46.90;22.50;;;;;;5051510;28;20070;-50
2021/06/04 07:25:57;;;;;;;13.02;7.50;;;47.80;22.00;;;;;;5050943;28;20029;-51
2021/06/04 07:28:28;;;;;;;11.18;6.03;;;48.40;21.60;;;;;;5051467;28;20036;-49
2021/06/04 07:30:55;;;;;;;9.30;6.45;;;48.70;21.30;;;;;;5032334;28;20025;-52
2021/06/04 07:33:23;;;;;;;11.70;6.72;;;48.40;21.10;;;;;;5032330;28;20120;-48
2021/06/04 07:35:52;;;;;;;15.13;6.78;;;48.60;21.20;;;;;;5050112;28;20051;-50
2021/06/04 07:38:17;;;;;;;11.73;6.50;;;48.90;21.10;;;;;;5032999;28;20029;-50
2021/06/04 07:40:44;;;;;;;8.73;5.68;;;48.70;21.00;;;;;;5032542;28;20109;-52
2021/06/04 07:43:35;;;;;;;20.80;7.40;;;48.50;21.20;;;;;;5050731;28;20028;-51
2021/06/04 07:46:05;;;;;;;15.13;6.53;;;47.50;21.20;;;;;;5031516;28;20033;-50
2021/06/04 07:48:34;;;;;;;8.50;6.88;;;47.00;21.50;;;;;;5048496;28;20471;-54
2021/06/04 07:51:04;;;;;;;12.98;6.80;;;47.10;21.50;;;;;;5032880;28;20029;-53
2021/06/04 07:53:34;;;;;;;15.77;6.10;;;47.90;21.30;;;;;;5050022;28;20056;-55
2021/06/04 07:56:01;;;;;;;7.60;6.57;;;48.20;21.30;;;;;;5050521;28;20021;-47
2021/06/04 07:58:27;;;;;;;9.68;7.00;;;49.20;21.10;;;;;;5032404;28;20029;-52
2021/06/04 08:00:53;;;;;;;35.00;9.25;;;49.90;20.80;;;;;;5049566;28;20032;-46
2021/06/04 08:03:26;;;;;;;34.10;8.48;;;50.30;20.60;;;;;;5049729;28;20041;-52
2021/06/04 08:05:53;;;;;;;9.60;6.75;;;49.90;20.50;;;;;;5049744;28;20491;-52
2021/06/04 08:08:21;;;;;;;12.02;6.22;;;50.10;20.50;;;;;;5032595;28;20044;-49
2021/06/04 08:10:47;;;;;;;9.07;6.95;;;50.70;20.50;;;;;;5048946;28;20053;-50
2021/06/04 08:13:15;;;;;;;14.70;7.75;;;50.40;20.20;;;;;;5050004;28;20037;-50
2021/06/04 08:15:53;;;;;;;11.52;7.18;;;50.10;20.30;;;;;;5049386;28;20221;-50
2021/06/04 08:18:24;;;;;;;23.50;8.05;;;50.30;20.50;;;;;;5044243;28;20120;-51
2021/06/04 08:20:51;;;;;;;32.42;9.38;;;50.40;20.30;;;;;;5049130;28;20122;-53
2021/06/04 08:23:23;;;;;;;13.93;7.15;;;50.00;20.50;;;;;;5050206;28;20078;-50
2021/06/04 08:25:54;;;;;;;20.02;7.57;;;49.60;20.60;;;;;;5049088;28;20041;-53
2021/06/04 08:28:21;;;;;;;21.85;7.78;;;50.40;20.60;;;;;;5032191;28;20132;-47
2021/06/04 08:30:48;;;;;;;12.05;6.13;;;50.90;21.10;;;;;;5049500;28;20033;-51
2021/06/04 08:33:23;;;;;;;8.02;5.28;;;50.10;20.50;;;;;;5049900;28;20031;-49
2021/06/04 08:35:49;;;;;;;11.52;6.85;;;50.60;20.30;;;;;;5049417;28;20100;-46
2021/06/04 08:38:15;;;;;;;11.98;5.90;;;51.20;20.30;;;;;;5049364;28;20434;-50
2021/06/04 08:40:41;;;;;;;12.68;5.82;;;51.10;20.20;;;;;;5049068;28;20122;-47
2021/06/04 08:43:13;;;;;;;15.05;6.40;;;50.70;20.30;;;;;;5049419;28;20047;-51
2021/06/04 08:45:51;;;;;;;23.33;7.40;;;51.10;20.40;;;;;;5048638;28;20032;-49
2021/06/04 08:48:45;;;;;;;11.88;5.95;;;51.00;20.30;;;;;;5049879;28;20146;-50
2021/06/04 08:51:13;;;;;;;22.02;7.55;;;51.20;20.20;;;;;;5031910;28;20029;-53
2021/06/04 08:53:52;;;;;;;7.20;4.68;;;51.80;20.20;;;;;;5030752;28;20033;-50
2021/06/04 08:56:23;;;;;;;10.52;5.38;;;51.40;19.90;;;;;;5049073;28;20048;-53
2021/06/04 08:59:06;;;;;;;8.10;5.90;;;51.30;19.90;;;;;;5048739;28;20029;-52
2021/06/04 09:02:01;;;;;;;7.18;4.55;;;51.50;19.80;;;;;;5029952;28;20541;-47
2021/06/04 09:04:41;;;;;;;8.70;5.00;;;51.30;19.80;;;;;;5045447;28;20163;-48
2021/06/04 09:07:13;;;;;;;8.75;5.53;;;50.70;19.90;;;;;;5048079;28;20141;-51
2021/06/04 09:09:57;;;;;;;10.55;5.28;;;50.50;20.10;;;;;;5013772;28;20082;-53
2021/06/04 09:12:33;;;;;;;8.63;4.78;;;49.80;20.30;;;;;;5047861;28;20036;-54
2021/06/04 09:14:59;;;;;;;7.07;3.92;;;49.90;20.20;;;;;;5027514;28;20068;-53
2021/06/04 09:18:03;;;;;;;7.25;3.08;;;48.50;20.40;;;;;;5028030;28;20128;-50
2021/06/04 09:20:49;;;;;;;9.02;2.97;;;45.10;21.10;;;;;;5027908;28;20220;-50
2021/06/04 09:23:21;;;;;;;10.68;3.38;;;42.10;22.80;;;;;;5029896;28;20124;-53
2021/06/04 09:25:47;;;;;;;8.10;3.50;;;39.50;24.30;;;;;;5031677;28;20080;-53
2021/06/04 09:28:18;;;;;;;10.50;3.75;;;37.90;25.30;;;;;;5030621;28;20041;-53
2021/06/04 09:30:51;;;;;;;10.90;3.80;;;37.20;26.10;;;;;;5031854;28;20056;-51
2021/06/04 09:33:30;;;;;;;8.98;3.00;;;35.50;27.20;;;;;;5032456;28;20029;-50
2021/06/04 09:36:00;;;;;;;8.30;3.35;;;34.20;28.40;;;;;;5031514;28;20049;-53
2021/06/04 09:38:52;;;;;;;10.60;3.08;;;33.40;29.10;;;;;;5030681;28;20037;-53
2021/06/04 09:41:25;;;;;;;5.25;3.17;;;32.80;29.30;;;;;;5032773;28;20056;-50
2021/06/04 09:44:05;;;;;;;13.63;3.90;;;31.90;30.00;;;;;;5030096;28;20021;-49
2021/06/04 09:46:41;;;;;;;6.85;3.15;;;31.50;30.20;;;;;;5032155;28;20315;-47
2021/06/04 09:49:08;;;;;;;9.82;2.92;;;31.40;30.40;;;;;;5031828;28;20021;-50
2021/06/04 09:51:38;;;;;;;6.63;2.97;;;31.10;30.70;;;;;;5029953;28;20053;-52
2021/06/04 09:54:25;;;;;;;6.60;2.85;;;30.60;31.40;;;;;;5032061;28;20104;-48
2021/06/04 09:57:13;;;;;;;5.47;2.90;;;30.10;31.90;;;;;;5031896;28;20128;-45
2021/06/04 09:59:41;;;;;;;10.50;3.22;;;29.70;32.30;;;;;;5029754;28;20037;-46
2021/06/04 10:02:31;;;;;;;7.68;3.60;;;29.40;32.80;;;;;;5032204;28;20106;-47
2021/06/04 10:05:11;;;;;;;4.70;2.90;;;29.30;33.20;;;;;;5031557;28;20115;-48
2021/06/04 10:07:38;;;;;;;7.97;3.38;;;29.30;33.40;;;;;;5030393;28;20040;-48
2021/06/04 10:10:33;;;;;;;5.63;4.32;;;29.10;33.50;;;;;;5030781;28;20026;-48
2021/06/04 10:13:06;;;;;;;7.18;3.30;;;28.90;34.00;;;;;;5029759;28;20159;-48
2021/06/04 10:15:51;;;;;;;10.52;3.45;;;28.90;34.10;;;;;;5048853;28;20049;-47
2021/06/04 10:18:30;;;;;;;4.70;3.42;;;28.80;34.40;;;;;;5052385;28;20032;-47
2021/06/04 10:21:14;;;;;;;8.45;3.28;;;28.80;34.50;;;;;;5051564;28;20036;-47
2021/06/04 10:23:45;;;;;;;7.47;3.15;;;29.00;35.00;;;;;;5051292;28;20055;-47
2021/06/04 10:26:25;;;;;;;8.05;3.53;;;29.30;34.20;;;;;;5033167;28;20029;-46
2021/06/04 10:29:11;;;;;;;7.57;3.38;;;29.40;34.20;;;;;;5033438;28;20036;-46
2021/06/04 10:32:15;;;;;;;8.73;3.28;;;29.30;34.10;;;;;;5050702;28;20124;-46
2021/06/04 10:35:16;;;;;;;6.47;3.27;;;29.20;34.30;;;;;;5031937;28;20455;-49
2021/06/04 10:37:51;;;;;;;4.65;3.10;;;29.00;34.40;;;;;;5050953;28;20264;-54
2021/06/04 10:40:17;;;;;;;10.00;3.35;;;29.10;34.50;;;;;;5033933;28;20028;-51
2021/06/04 10:42:58;;;;;;;11.57;4.10;;;29.20;34.30;;;;;;5050790;28;20025;-49
2021/06/04 10:45:48;;;;;;;6.97;4.13;;;29.30;34.50;;;;;;5051026;28;20539;-49
2021/06/04 10:48:50;;;;;;;20.83;5.90;;;29.40;34.10;;;;;;5051101;28;20487;-48
2021/06/04 10:51:46;;;;;;;9.70;4.20;;;29.60;34.30;;;;;;5050735;28;20028;-51
2021/06/04 10:54:49;;;;;;;5.32;2.80;;;29.60;33.50;;;;;;5051324;28;20109;-53
2021/06/04 10:57:40;;;;;;;6.15;2.60;;;29.30;33.30;;;;;;5033384;28;20033;-46
2021/06/04 11:00:35;;;;;;;9.02;3.40;;;29.40;33.50;;;;;;5051139;28;20032;-47
2021/06/04 11:03:10;;;;;;;5.18;3.40;;;29.40;33.50;;;;;;5050887;28;20040;-47
2021/06/04 11:05:54;;;;;;;9.38;3.40;;;29.40;33.20;;;;;;5032462;28;20108;-51
2021/06/04 11:08:42;;;;;;;8.55;3.58;;;29.40;33.30;;;;;;5032304;28;20037;-50
2021/06/04 11:11:23;;;;;;;15.70;3.47;;;29.40;33.20;;;;;;5032777;28;20036;-49
2021/06/04 11:52:16;;;;;;;5.93;3.05;;;27.50;35.00;;;;;;5066882;27;20383;-52
2021/06/04 11:54:49;;;;;;;7.03;3.05;;;29.10;33.10;;;;;;5033204;28;20475;-52
2021/06/04 11:57:51;;;;;;;9.90;2.55;;;29.10;32.60;;;;;;5028365;28;20034;-51
2021/06/04 12:00:40;;;;;;;6.20;3.17;;;29.10;32.60;;;;;;5025941;28;20037;-53
2021/06/04 12:03:10;;;;;;;11.20;3.60;;;29.30;32.30;;;;;;5009776;28;20452;-50
2021/06/04 12:06:05;;;;;;;9.05;3.17;;;29.40;32.30;;;;;;5037314;28;20025;-51
2021/06/04 12:08:36;;;;;;;6.50;2.88;;;29.30;32.50;;;;;;5026165;28;20092;-53
2021/06/04 12:11:30;;;;;;;7.78;3.78;;;29.10;32.30;;;;;;5023616;28;20040;-48
2021/06/04 12:13:58;;;;;;;7.85;2.90;;;29.00;32.70;;;;;;5029301;28;20045;-46
2021/06/04 12:16:36;;;;;;;6.25;3.00;;;29.20;32.70;;;;;;5036217;28;20041;-53
2021/06/04 12:19:23;;;;;;;4.65;3.05;;;29.30;32.50;;;;;;5028037;28;20760;-48
2021/06/04 12:21:51;;;;;;;29.25;4.55;;;29.50;32.40;;;;;;5023744;28;20106;-46
2021/06/04 12:24:17;;;;;;;7.93;2.78;;;29.60;32.60;;;;;;5029396;28;20120;-48
2021/06/04 12:27:02;;;;;;;8.05;2.90;;;29.80;32.00;;;;;;5029675;28;20103;-50
2021/06/04 12:29:31;;;;;;;6.97;3.10;;;29.80;31.90;;;;;;5031995;28;20110;-49
2021/06/04 12:32:09;;;;;;;6.43;3.15;;;29.80;31.90;;;;;;5033427;28;20033;-48
2021/06/04 12:34:38;;;;;;;7.47;3.20;;;29.90;31.70;;;;;;5029796;28;20049;-49
2021/06/04 12:37:21;;;;;;;9.90;3.20;;;30.00;31.50;;;;;;5030877;28;20029;-46
2021/06/04 12:40:29;;;;;;;8.18;3.20;;;30.00;31.70;;;;;;5027033;28;20032;-49
2021/06/04 12:43:19;;;;;;;6.07;2.88;;;30.00;31.70;;;;;;5025884;28;20048;-48
2021/06/04 12:46:17;;;;;;;5.82;2.92;;;30.00;31.60;;;;;;5023952;28;20022;-47
2021/06/04 12:48:44;;;;;;;4.82;2.83;;;30.00;31.40;;;;;;5018379;28;20042;-54
2021/06/04 12:51:21;;;;;;;5.80;3.83;;;30.10;31.60;;;;;;5032681;28;20069;-49
2021/06/04 12:53:50;;;;;;;6.80;3.35;;;30.30;31.20;;;;;;5034832;28;20029;-46
2021/06/04 12:56:41;;;;;;;5.30;2.78;;;30.40;31.10;;;;;;5066736;28;20033;-50
2021/06/04 12:59:14;;;;;;;5.07;3.08;;;30.50;31.00;;;;;;5033173;28;20094;-54
2021/06/04 13:02:07;;;;;;;5.00;2.90;;;30.60;30.90;;;;;;5038270;28;20515;-48
2021/06/04 13:04:54;;;;;;;37.30;7.07;;;30.60;31.00;;;;;;5029157;28;20040;-51
2021/06/04 13:07:26;;;;;;;11.15;3.88;;;30.60;31.70;;;;;;5023108;28;20052;-49
2021/06/04 13:10:04;;;;;;;7.00;3.28;;;30.80;30.80;;;;;;5030571;28;20089;-49
2021/06/04 13:12:33;;;;;;;7.60;3.08;;;30.80;30.70;;;;;;5030684;28;20037;-50
2021/06/04 13:15:14;;;;;;;6.72;3.03;;;30.90;30.40;;;;;;5053438;28;20087;-52
2021/06/04 13:17:40;;;;;;;4.35;3.00;;;30.90;30.40;;;;;;5054208;28;20033;-52
2021/06/04 13:20:12;;;;;;;7.30;3.03;;;30.70;30.60;;;;;;5028252;28;20128;-53
2021/06/04 13:22:40;;;;;;;4.32;2.60;;;30.30;31.00;;;;;;5028501;28;20053;-48
2021/06/04 13:25:40;;;;;;;5.03;2.50;;;30.30;31.20;;;;;;5039006;28;20029;-50
2021/06/04 13:28:35;;;;;;;7.97;3.10;;;30.30;31.10;;;;;;5032477;28;20088;-50
2021/06/04 13:31:07;;;;;;;17.63;6.10;;;30.00;31.50;;;;;;5032260;28;20041;-49
2021/06/04 13:33:38;;;;;;;6.22;3.03;;;30.30;31.50;;;;;;5034464;28;20035;-51
2021/06/04 13:36:06;;;;;;;13.52;3.88;;;30.50;30.90;;;;;;5034999;28;20033;-47
2021/06/04 13:41:05;;;;;;;9.45;2.95;;;30.80;30.40;;;;;;5010870;28;20085;-46
2021/06/04 13:43:39;;;;;;;8.82;3.85;;;30.80;30.10;;;;;;4982408;28;20034;-51
2021/06/04 13:46:11;;;;;;;7.78;3.00;;;30.70;30.20;;;;;;5012340;28;20053;-49
2021/06/04 13:48:37;;;;;;;10.43;2.85;;;30.70;30.20;;;;;;4994522;28;20075;-53
2021/06/04 13:51:11;;;;;;;4.50;2.58;;;30.80;30.00;;;;;;4994130;28;20034;-48
2021/06/04 13:54:03;;;;;;;8.88;2.75;;;30.60;30.10;;;;;;4977294;28;20033;-46